Time;durP1;ratioP1;P1;durP2;ratioP2;P2;SDS_P1;SDS_P2;PMS_P1;PMS_P2;Temp;Humidity;BMP_temperature;BMP_pressure;BME280_temperature;BME280_humidity;BME280_pressure;Samples;Min_cycle;Max_cycle;Signal;HPM_P1;HPM_P2
2023/10/17 00:00:31;;;;;;;10.50;5.93;;;;;;;;;;5073545;28;20486;-76
2023/10/17 00:03:00;;;;;;;9.07;4.57;;;;;;;;;;5073050;28;20919;-76
2023/10/17 00:05:26;;;;;;;10.57;6.23;;;;;;;;;;5073185;28;20400;-76
2023/10/17 00:07:52;;;;;;;7.57;4.20;;;;;;;;;;5073071;28;20422;-77
2023/10/17 00:10:18;;;;;;;8.23;5.23;;;;;;;;;;5055330;28;20423;-77
2023/10/17 00:12:52;;;;;;;6.87;5.17;;;;;;;;;;5073274;28;20468;-77
2023/10/17 00:15:27;;;;;;;7.57;4.10;;;;;;;;;;5055245;28;20443;-77
2023/10/17 00:18:00;;;;;;;9.10;5.30;;;;;;;;;;5055128;28;20471;-76
2023/10/17 00:20:37;;;;;;;9.00;4.90;;;;;;;;;;5055252;28;20501;-78
2023/10/17 00:23:04;;;;;;;7.73;5.20;;;;;;;;;;5072807;28;20418;-79
2023/10/17 00:25:30;;;;;;;9.80;5.20;;;;;;;;;;5055134;28;20414;-78
2023/10/17 00:27:57;;;;;;;8.03;5.67;;;;;;;;;;5054563;28;20783;-80
2023/10/17 00:30:23;;;;;;;9.50;6.30;;;;;;;;;;5072961;28;20416;-78
2023/10/17 00:32:52;;;;;;;7.73;4.93;;;;;;;;;;5057968;28;20472;-82
2023/10/17 00:35:25;;;;;;;7.73;5.40;;;;;;;;;;5040886;28;21086;-79
2023/10/17 00:37:57;;;;;;;7.17;4.80;;;;;;;;;;5072069;28;20424;-78
2023/10/17 00:40:34;;;;;;;9.40;5.40;;;;;;;;;;5072917;28;20450;-78
2023/10/17 00:43:03;;;;;;;6.87;4.20;;;;;;;;;;5072948;28;20434;-78
2023/10/17 00:45:29;;;;;;;6.87;4.60;;;;;;;;;;5072819;28;20425;-78
2023/10/17 00:47:55;;;;;;;10.27;5.77;;;;;;;;;;5072297;28;20467;-77
2023/10/17 00:50:21;;;;;;;6.10;4.70;;;;;;;;;;5071998;28;20532;-78
2023/10/17 00:52:49;;;;;;;8.43;4.60;;;;;;;;;;5072343;28;20481;-78
2023/10/17 00:55:15;;;;;;;8.20;4.40;;;;;;;;;;5072815;28;20409;-78
2023/10/17 00:57:41;;;;;;;4.83;3.60;;;;;;;;;;5072708;28;20790;-78
2023/10/17 01:00:23;;;;;;;7.07;4.77;;;;;;;;;;5072675;28;20417;-78
2023/10/17 01:02:51;;;;;;;7.70;5.07;;;;;;;;;;5072635;28;20421;-77
2023/10/17 01:05:17;;;;;;;6.17;3.83;;;;;;;;;;5072658;28;20398;-78
2023/10/17 01:07:43;;;;;;;9.33;4.70;;;;;;;;;;5072305;28;20412;-78
2023/10/17 01:10:10;;;;;;;7.83;4.00;;;;;;;;;;5072548;28;20901;-78
2023/10/17 01:12:41;;;;;;;8.40;4.50;;;;;;;;;;5072392;28;20472;-79
2023/10/17 01:15:07;;;;;;;10.10;5.30;;;;;;;;;;5072485;28;20737;-77
2023/10/17 01:17:35;;;;;;;6.80;4.80;;;;;;;;;;5072553;28;20450;-78
2023/10/17 01:20:08;;;;;;;7.03;5.00;;;;;;;;;;5072309;28;20439;-78
2023/10/17 01:22:41;;;;;;;8.93;4.60;;;;;;;;;;5072389;28;20476;-77
2023/10/17 01:25:18;;;;;;;9.37;4.67;;;;;;;;;;5072341;28;20409;-77
2023/10/17 01:27:44;;;;;;;4.67;3.60;;;;;;;;;;5072371;28;20445;-76
2023/10/17 01:30:10;;;;;;;6.83;4.60;;;;;;;;;;5072348;28;20477;-78
2023/10/17 01:32:36;;;;;;;5.77;4.17;;;;;;;;;;5072229;28;20479;-79
2023/10/17 01:35:07;;;;;;;6.87;3.80;;;;;;;;;;5072170;28;20962;-77
2023/10/17 01:37:33;;;;;;;6.67;4.37;;;;;;;;;;5072375;28;20403;-77
2023/10/17 01:40:08;;;;;;;5.30;4.30;;;;;;;;;;5054274;28;20826;-83
2023/10/17 01:42:34;;;;;;;9.50;4.77;;;;;;;;;;5052319;28;20794;-78
2023/10/17 01:45:00;;;;;;;6.37;4.23;;;;;;;;;;5052320;28;20450;-77
2023/10/17 01:47:26;;;;;;;5.90;3.87;;;;;;;;;;5055292;28;20464;-78
2023/10/17 01:49:52;;;;;;;7.17;4.33;;;;;;;;;;5072163;28;20419;-83
2023/10/17 01:52:18;;;;;;;5.83;3.53;;;;;;;;;;5072184;28;20469;-77
2023/10/17 01:54:48;;;;;;;8.93;4.80;;;;;;;;;;5071832;28;20506;-77
2023/10/17 01:57:14;;;;;;;8.83;4.20;;;;;;;;;;5072112;28;20455;-77
2023/10/17 01:59:40;;;;;;;7.10;3.60;;;;;;;;;;5072104;28;20894;-77
2023/10/17 02:02:06;;;;;;;6.10;4.00;;;;;;;;;;5057824;28;20465;-83
2023/10/17 02:04:35;;;;;;;3.87;3.07;;;;;;;;;;5075685;28;20530;-83
2023/10/17 02:07:02;;;;;;;5.63;3.90;;;;;;;;;;5075701;28;20472;-81
2023/10/17 02:12:00;;;;;;;6.13;4.50;;;;;;;;;;5075176;28;20457;-81
2023/10/17 02:14:26;;;;;;;4.70;3.83;;;;;;;;;;5075462;28;20415;-78
2023/10/17 02:16:52;;;;;;;7.00;4.17;;;;;;;;;;5075448;28;20510;-79
2023/10/17 02:19:31;;;;;;;5.77;3.17;;;;;;;;;;5058596;28;20425;-80
2023/10/17 02:21:58;;;;;;;4.50;2.60;;;;;;;;;;5055343;28;20396;-81
2023/10/17 02:24:29;;;;;;;8.40;4.77;;;;;;;;;;5054997;28;20427;-80
2023/10/17 02:27:00;;;;;;;7.50;4.93;;;;;;;;;;5055304;28;20491;-78
2023/10/17 02:29:31;;;;;;;7.33;4.13;;;;;;;;;;5055378;28;20437;-83
2023/10/17 02:31:58;;;;;;;5.73;4.03;;;;;;;;;;5054990;28;20539;-77
2023/10/17 02:34:29;;;;;;;7.03;6.00;;;;;;;;;;5055215;28;20726;-76
2023/10/17 02:36:55;;;;;;;10.87;4.80;;;;;;;;;;5055096;28;20400;-80
2023/10/17 02:39:21;;;;;;;5.27;3.50;;;;;;;;;;5054786;28;20419;-78
2023/10/17 02:41:57;;;;;;;5.83;4.00;;;;;;;;;;5054918;28;20462;-77
2023/10/17 02:44:24;;;;;;;9.17;4.07;;;;;;;;;;5055062;28;20391;-81
2023/10/17 02:46:50;;;;;;;5.77;4.43;;;;;;;;;;5054800;28;20432;-77
2023/10/17 02:49:16;;;;;;;7.93;4.70;;;;;;;;;;5054242;28;21037;-77
2023/10/17 02:51:42;;;;;;;8.63;4.77;;;;;;;;;;5054300;28;20484;-80
2023/10/17 02:54:12;;;;;;;6.67;3.80;;;;;;;;;;5036715;28;20960;-82
2023/10/17 02:56:46;;;;;;;6.03;4.60;;;;;;;;;;5054352;28;20422;-81
2023/10/17 02:59:12;;;;;;;5.53;3.87;;;;;;;;;;5054408;28;20420;-79
2023/10/17 03:01:39;;;;;;;5.30;3.73;;;;;;;;;;5054631;28;20502;-82
2023/10/17 03:04:09;;;;;;;6.20;3.80;;;;;;;;;;5071929;28;20519;-76
2023/10/17 03:06:37;;;;;;;7.80;4.37;;;;;;;;;;5074033;28;20839;-82
2023/10/17 03:09:15;;;;;;;6.73;4.60;;;;;;;;;;5073614;28;20427;-77
2023/10/17 03:11:50;;;;;;;7.60;4.63;;;;;;;;;;5073536;28;20454;-77
2023/10/17 03:14:19;;;;;;;5.73;4.03;;;;;;;;;;5074505;28;20444;-77
2023/10/17 03:17:03;;;;;;;10.67;4.70;;;;;;;;;;5074447;28;20399;-79
2023/10/17 03:19:29;;;;;;;7.53;4.33;;;;;;;;;;5074413;28;20441;-77
2023/10/17 03:21:56;;;;;;;6.20;5.03;;;;;;;;;;5074395;28;20770;-77
2023/10/17 03:27:11;;;;;;;6.63;3.60;;;;;;;;;;5074523;28;20523;-77
2023/10/17 03:29:41;;;;;;;6.63;3.87;;;;;;;;;;5074215;28;20846;-78
2023/10/17 03:32:11;;;;;;;10.00;3.77;;;;;;;;;;5074024;28;20918;-80
2023/10/17 03:34:37;;;;;;;5.97;3.60;;;;;;;;;;5074115;28;20446;-77
2023/10/17 03:39:52;;;;;;;9.80;5.27;;;;;;;;;;5074319;28;20402;-77
2023/10/17 03:42:31;;;;;;;8.97;4.43;;;;;;;;;;5055955;28;20414;-76
2023/10/17 03:44:58;;;;;;;7.63;5.20;;;;;;;;;;5056038;28;20439;-78
2023/10/17 03:47:24;;;;;;;7.20;4.17;;;;;;;;;;5073622;28;20979;-80
2023/10/17 03:49:55;;;;;;;10.53;4.50;;;;;;;;;;5073721;28;20411;-76
2023/10/17 03:52:22;;;;;;;8.63;3.90;;;;;;;;;;5073342;28;20510;-76
2023/10/17 03:54:48;;;;;;;7.77;4.77;;;;;;;;;;5073643;28;20403;-76
2023/10/17 03:57:17;;;;;;;8.67;5.53;;;;;;;;;;5073450;28;20427;-76
2023/10/17 03:59:50;;;;;;;5.67;3.93;;;;;;;;;;5073488;28;20899;-75
2023/10/17 04:02:21;;;;;;;9.23;4.10;;;;;;;;;;5055708;28;20778;-76
2023/10/17 04:04:53;;;;;;;7.33;3.83;;;;;;;;;;5073512;28;20407;-75
2023/10/17 04:07:21;;;;;;;5.77;3.80;;;;;;;;;;5073165;28;20424;-75
2023/10/17 04:10:01;;;;;;;8.17;4.40;;;;;;;;;;5073395;28;20408;-76
2023/10/17 04:12:48;;;;;;;4.57;3.00;;;;;;;;;;5073290;28;20519;-76
2023/10/17 04:15:15;;;;;;;5.80;3.33;;;;;;;;;;5073264;28;20414;-76
2023/10/17 04:17:41;;;;;;;6.00;3.90;;;;;;;;;;5073283;28;20768;-76
2023/10/17 04:20:16;;;;;;;6.17;4.13;;;;;;;;;;5073255;28;20952;-76
2023/10/17 04:22:46;;;;;;;7.03;4.50;;;;;;;;;;5072735;28;20415;-76
2023/10/17 04:28:03;;;;;;;6.70;4.10;;;;;;;;;;5073243;28;20497;-76
2023/10/17 04:30:30;;;;;;;5.17;2.80;;;;;;;;;;5073130;28;20423;-77
2023/10/17 04:33:08;;;;;;;4.80;3.57;;;;;;;;;;5073032;28;20470;-77
2023/10/17 04:35:34;;;;;;;6.73;4.40;;;;;;;;;;5055208;28;20445;-77
2023/10/17 04:40:50;;;;;;;5.20;3.07;;;;;;;;;;5073093;28;20449;-79
2023/10/17 04:45:44;;;;;;;6.23;2.80;;;;;;;;;;5073038;28;20936;-77
2023/10/17 04:48:11;;;;;;;4.83;3.23;;;;;;;;;;5072786;28;20459;-77
2023/10/17 04:50:56;;;;;;;5.63;2.90;;;;;;;;;;5072963;28;20408;-77
2023/10/17 04:53:35;;;;;;;4.83;3.87;;;;;;;;;;5052511;28;20517;-77
2023/10/17 04:56:15;;;;;;;5.37;2.90;;;;;;;;;;5052772;28;20771;-76
2023/10/17 04:58:48;;;;;;;11.93;3.90;;;;;;;;;;5052964;28;20404;-76
2023/10/17 06:17:48;;;;;;;9.10;3.60;;;;;;;;;;5075393;28;20414;-76
2023/10/17 06:20:16;;;;;;;10.33;3.03;;;;;;;;;;5075493;28;20420;-76
2023/10/17 06:26:04;;;;;;;7.00;3.87;;;;;;;;;;5075438;28;20430;-78
2023/10/17 06:28:28;;;;;;;14.70;5.80;;;;;;;;;;5075096;28;20416;-77
2023/10/17 06:33:38;;;;;;;5.67;3.60;;;;;;;;;;5075301;28;20897;-76
2023/10/17 06:36:17;;;;;;;5.93;3.80;;;;;;;;;;5075243;28;20435;-77
2023/10/17 06:38:46;;;;;;;8.57;4.00;;;;;;;;;;5074935;28;20400;-76
2023/10/17 06:41:16;;;;;;;10.10;4.00;;;;;;;;;;5074874;28;20412;-76
2023/10/17 06:43:46;;;;;;;9.83;4.83;;;;;;;;;;5074802;28;20439;-76
2023/10/17 06:46:14;;;;;;;6.80;4.17;;;;;;;;;;5075099;28;20399;-76
2023/10/17 06:48:49;;;;;;;7.63;3.87;;;;;;;;;;5074962;28;20534;-76
2023/10/17 06:53:47;;;;;;;4.47;3.70;;;;;;;;;;5074473;28;20816;-76
2023/10/17 06:56:13;;;;;;;5.30;3.57;;;;;;;;;;5074784;28;20457;-76
2023/10/17 06:58:39;;;;;;;4.40;2.17;;;;;;;;;;5074863;28;20408;-78
2023/10/17 07:01:05;;;;;;;4.20;3.37;;;;;;;;;;5074615;28;20912;-76
2023/10/17 07:03:34;;;;;;;5.63;2.70;;;;;;;;;;5074755;28;20502;-80
2023/10/17 07:06:13;;;;;;;4.27;2.10;;;;;;;;;;5074776;28;20444;-78
2023/10/17 07:08:40;;;;;;;6.07;2.80;;;;;;;;;;5074289;28;20479;-78
2023/10/17 07:11:09;;;;;;;4.23;2.70;;;;;;;;;;5074493;28;20401;-79
2023/10/17 07:16:48;;;;;;;5.40;3.20;;;;;;;;;;5071475;28;20430;-80
2023/10/17 07:24:23;;;;;;;5.07;3.87;;;;;;;;;;5074562;28;20420;-76
2023/10/17 07:26:49;;;;;;;3.47;2.73;;;;;;;;;;5074339;28;20417;-76
2023/10/17 07:29:15;;;;;;;3.77;2.33;;;;;;;;;;5056166;28;20422;-76
2023/10/17 07:31:41;;;;;;;6.03;3.17;;;;;;;;;;5074207;28;20421;-77
2023/10/17 07:36:34;;;;;;;4.03;3.60;;;;;;;;;;5074079;28;20280;-77
2023/10/17 07:39:01;;;;;;;3.97;3.53;;;;;;;;;;5073760;28;20180;-77
2023/10/17 07:41:36;;;;;;;3.00;2.27;;;;;;;;;;5074006;28;20408;-78
2023/10/17 07:44:19;;;;;;;3.87;2.03;;;;;;;;;;5073956;28;20934;-78
2023/10/17 07:46:48;;;;;;;4.57;2.00;;;;;;;;;;5073692;28;20407;-78
2023/10/17 07:49:16;;;;;;;3.10;1.93;;;;;;;;;;5073892;28;20421;-79
2023/10/17 07:51:42;;;;;;;2.50;1.73;;;;;;;;;;5055474;28;20407;-80
2023/10/17 07:54:08;;;;;;;2.77;1.23;;;;;;;;;;5073765;28;20758;-82
2023/10/17 07:56:34;;;;;;;2.50;1.80;;;;;;;;;;5073597;28;20413;-78
2023/10/17 07:59:08;;;;;;;2.87;1.40;;;;;;;;;;5073109;28;20751;-79
2023/10/17 08:01:43;;;;;;;4.60;2.27;;;;;;;;;;5073653;28;20812;-78
2023/10/17 08:06:41;;;;;;;3.00;2.37;;;;;;;;;;5073187;28;20412;-78
2023/10/17 08:11:52;;;;;;;4.23;2.50;;;;;;;;;;5073321;28;20443;-78
2023/10/17 08:14:22;;;;;;;4.87;2.77;;;;;;;;;;5073410;28;20800;-79
2023/10/17 08:16:54;;;;;;;3.50;2.27;;;;;;;;;;5073338;28;20490;-78
2023/10/17 08:19:23;;;;;;;4.30;2.67;;;;;;;;;;5073403;28;20409;-78
2023/10/17 08:21:59;;;;;;;4.77;2.80;;;;;;;;;;5072949;28;20836;-78
2023/10/17 08:24:40;;;;;;;5.63;1.30;;;;;;;;;;5073412;28;20751;-78
2023/10/17 08:27:13;;;;;;;5.60;3.07;;;;;;;;;;5073319;28;20404;-78
2023/10/17 08:29:42;;;;;;;3.20;1.67;;;;;;;;;;5072880;28;20471;-78
2023/10/17 08:32:54;;;;;;;4.77;3.07;;;;;;;;;;5073006;28;20874;-78
2023/10/17 08:35:08;;;;;;;2.57;1.83;;;;;;;;;;5069738;28;20420;-78
2023/10/17 08:37:43;;;;;;;2.50;1.40;;;;;;;;;;5072693;28;20913;-78
2023/10/17 08:42:57;;;;;;;3.73;1.20;;;;;;;;;;5072876;28;20413;-78
2023/10/17 08:45:26;;;;;;;3.30;1.57;;;;;;;;;;5072900;28;21008;-78
2023/10/17 08:47:59;;;;;;;2.23;1.77;;;;;;;;;;5072814;28;20471;-78
2023/10/17 08:50:25;;;;;;;2.30;1.23;;;;;;;;;;5072849;28;20413;-78
2023/10/17 08:52:53;;;;;;;3.60;1.40;;;;;;;;;;5069333;28;20508;-78
2023/10/17 08:55:22;;;;;;;2.20;0.80;;;;;;;;;;5065046;28;20425;-79
2023/10/17 08:57:50;;;;;;;3.63;1.10;;;;;;;;;;5052832;28;20419;-78
2023/10/17 09:00:39;;;;;;;2.90;1.30;;;;;;;;;;5052825;28;20420;-79
2023/10/17 09:03:09;;;;;;;2.33;1.10;;;;;;;;;;5052847;28;20404;-79
2023/10/17 09:05:57;;;;;;;3.57;1.60;;;;;;;;;;5052764;28;20893;-77
2023/10/17 09:08:41;;;;;;;3.07;0.90;;;;;;;;;;5052477;28;20919;-77
2023/10/17 09:11:14;;;;;;;2.23;0.90;;;;;;;;;;5055117;28;20404;-78
2023/10/17 09:16:15;;;;;;;2.73;1.30;;;;;;;;;;5055943;28;20408;-78
2023/10/17 09:18:54;;;;;;;2.53;1.03;;;;;;;;;;5056844;28;20494;-78
2023/10/17 09:21:22;;;;;;;4.50;1.53;;;;;;;;;;5056533;28;20431;-78
2023/10/17 09:23:50;;;;;;;2.40;1.17;;;;;;;;;;5056650;28;20404;-79
2023/10/17 09:26:23;;;;;;;2.30;0.60;;;;;;;;;;5056632;28;20918;-78
2023/10/17 09:28:49;;;;;;;3.93;0.60;;;;;;;;;;5056718;28;20405;-80
2023/10/17 09:31:17;;;;;;;3.57;0.77;;;;;;;;;;5059058;28;20443;-80
2023/10/17 09:33:43;;;;;;;1.80;0.60;;;;;;;;;;5067506;28;20464;-80
2023/10/17 09:36:10;;;;;;;2.07;0.80;;;;;;;;;;5067031;28;20450;-84
2023/10/17 09:41:32;;;;;;;3.17;0.97;;;;;;;;;;5051852;28;20395;-81
2023/10/17 09:43:59;;;;;;;2.17;1.23;;;;;;;;;;5066502;28;20408;-81
2023/10/17 09:46:27;;;;;;;3.30;1.10;;;;;;;;;;5064791;28;20422;-82
2023/10/17 09:48:55;;;;;;;3.10;0.87;;;;;;;;;;5065861;28;20481;-78
2023/10/17 09:51:24;;;;;;;1.70;0.67;;;;;;;;;;5066105;28;20785;-81
2023/10/17 09:53:52;;;;;;;3.53;0.63;;;;;;;;;;5066746;28;20585;-79
2023/10/17 09:56:20;;;;;;;2.80;0.30;;;;;;;;;;5072433;28;20407;-84
2023/10/17 09:58:54;;;;;;;4.37;0.63;;;;;;;;;;5072635;28;20771;-84
2023/10/17 10:01:27;;;;;;;3.17;1.07;;;;;;;;;;5075646;28;20514;-84
2023/10/17 10:03:57;;;;;;;2.23;0.50;;;;;;;;;;5073402;28;20492;-79
2023/10/17 10:06:27;;;;;;;1.53;0.30;;;;;;;;;;5075140;28;20746;-85
2023/10/17 10:08:54;;;;;;;4.10;0.87;;;;;;;;;;5067469;28;20445;-88
2023/10/17 10:11:20;;;;;;;3.07;0.37;;;;;;;;;;5075212;28;20444;-77
2023/10/17 10:14:08;;;;;;;2.37;0.50;;;;;;;;;;5072231;28;20459;-78
2023/10/17 10:16:49;;;;;;;2.03;0.27;;;;;;;;;;5064049;28;20423;-83
2023/10/17 10:19:16;;;;;;;1.30;0.23;;;;;;;;;;5063971;28;20399;-84
2023/10/17 10:21:56;;;;;;;5.03;0.40;;;;;;;;;;5074525;28;20446;-83
2023/10/17 10:24:26;;;;;;;1.10;0.20;;;;;;;;;;5074885;28;20395;-79
2023/10/17 10:27:20;;;;;;;3.23;0.60;;;;;;;;;;5075017;28;20416;-77
2023/10/17 10:29:49;;;;;;;2.90;0.43;;;;;;;;;;5075028;28;20402;-81
2023/10/17 10:32:33;;;;;;;1.30;0.43;;;;;;;;;;5065414;28;20464;-80
2023/10/17 10:35:01;;;;;;;2.20;0.40;;;;;;;;;;5053973;28;20782;-80
2023/10/17 10:37:26;;;;;;;1.97;0.30;;;;;;;;;;5074909;28;20414;-80
2023/10/17 10:40:22;;;;;;;1.67;0.57;;;;;;;;;;5075178;28;20907;-77
2023/10/17 10:42:49;;;;;;;4.43;0.50;;;;;;;;;;5057313;28;20179;-77
2023/10/17 10:45:42;;;;;;;2.00;0.20;;;;;;;;;;5075147;28;20453;-77
2023/10/17 10:48:15;;;;;;;1.87;0.30;;;;;;;;;;5074886;28;20451;-80
2023/10/17 10:50:55;;;;;;;1.60;0.33;;;;;;;;;;5075075;28;20404;-77
2023/10/17 10:53:25;;;;;;;2.40;0.30;;;;;;;;;;5074651;28;20933;-80
2023/10/17 10:56:03;;;;;;;4.50;0.40;;;;;;;;;;5074679;28;20411;-85
2023/10/17 10:58:30;;;;;;;1.43;0.30;;;;;;;;;;5044872;28;20411;-86
2023/10/17 11:01:01;;;;;;;3.13;0.20;;;;;;;;;;5054803;28;20420;-80
2023/10/17 11:03:27;;;;;;;2.27;0.33;;;;;;;;;;5054362;28;20414;-77
2023/10/17 11:06:03;;;;;;;1.63;0.50;;;;;;;;;;5061075;28;20424;-78
2023/10/17 11:08:36;;;;;;;1.47;0.33;;;;;;;;;;5074623;28;20192;-78
2023/10/17 11:11:03;;;;;;;1.70;0.20;;;;;;;;;;5074408;28;21013;-80
2023/10/17 11:13:42;;;;;;;2.70;0.70;;;;;;;;;;5074237;28;20831;-84
2023/10/17 11:16:08;;;;;;;2.07;0.57;;;;;;;;;;5056712;28;20427;-77
2023/10/17 11:18:38;;;;;;;2.40;0.20;;;;;;;;;;5074517;28;20428;-77
2023/10/17 11:21:10;;;;;;;1.83;0.30;;;;;;;;;;5073605;28;20769;-77
2023/10/17 11:23:47;;;;;;;0.70;0.30;;;;;;;;;;5074145;28;20809;-85
2023/10/17 11:26:14;;;;;;;1.17;0.20;;;;;;;;;;5074212;28;20802;-81
2023/10/17 11:28:46;;;;;;;3.40;0.40;;;;;;;;;;5074386;28;20440;-77
2023/10/17 11:31:21;;;;;;;0.97;0.30;;;;;;;;;;5056361;28;20412;-79
2023/10/17 11:34:04;;;;;;;1.13;0.20;;;;;;;;;;5055373;28;20503;-77
2023/10/17 11:36:36;;;;;;;1.80;0.23;;;;;;;;;;5062872;28;20769;-82
2023/10/17 11:39:05;;;;;;;0.90;0.23;;;;;;;;;;5052769;28;20420;-83
2023/10/17 11:41:38;;;;;;;1.23;0.30;;;;;;;;;;5052484;28;20909;-83
2023/10/17 11:44:05;;;;;;;1.23;0.30;;;;;;;;;;5052958;28;20411;-82
2023/10/17 11:46:31;;;;;;;1.80;0.20;;;;;;;;;;5052967;28;20407;-82
2023/10/17 11:49:29;;;;;;;1.90;0.33;;;;;;;;;;5052718;28;20435;-79
2023/10/17 11:52:02;;;;;;;3.67;0.30;;;;;;;;;;5052618;28;20418;-81
2023/10/17 11:54:29;;;;;;;1.80;0.30;;;;;;;;;;5053769;28;20420;-78
2023/10/17 11:56:55;;;;;;;1.67;0.40;;;;;;;;;;5053790;28;20412;-87
2023/10/17 11:59:21;;;;;;;1.53;0.20;;;;;;;;;;5053737;28;20806;-78
2023/10/17 12:01:52;;;;;;;1.93;0.20;;;;;;;;;;5052849;28;20414;-79
2023/10/17 12:04:18;;;;;;;2.60;0.40;;;;;;;;;;5053162;28;20513;-78
2023/10/17 12:06:47;;;;;;;2.13;0.33;;;;;;;;;;5053286;28;20934;-79
2023/10/17 12:09:22;;;;;;;2.50;0.30;;;;;;;;;;5053512;28;20180;-84
2023/10/17 12:11:49;;;;;;;1.70;0.30;;;;;;;;;;5052695;28;20430;-77
2023/10/17 12:14:21;;;;;;;1.33;0.20;;;;;;;;;;5053467;28;20423;-77
2023/10/17 12:17:00;;;;;;;3.23;0.30;;;;;;;;;;5053326;28;20408;-83
2023/10/17 12:19:26;;;;;;;2.07;0.20;;;;;;;;;;5053318;28;20777;-77
2023/10/17 12:21:56;;;;;;;1.83;0.20;;;;;;;;;;5053009;28;20415;-78
2023/10/17 12:24:28;;;;;;;1.20;0.20;;;;;;;;;;5053374;28;20471;-82
2023/10/17 12:26:55;;;;;;;1.43;0.37;;;;;;;;;;5035277;28;20440;-79
2023/10/17 12:29:25;;;;;;;1.57;0.20;;;;;;;;;;5053049;28;20507;-81
2023/10/17 12:31:53;;;;;;;1.83;0.20;;;;;;;;;;5053141;28;20840;-84
2023/10/17 12:34:20;;;;;;;0.87;0.20;;;;;;;;;;5052993;28;20443;-78
2023/10/17 12:36:46;;;;;;;1.00;0.30;;;;;;;;;;5034601;28;20411;-78
2023/10/17 12:39:14;;;;;;;1.73;0.20;;;;;;;;;;5035158;28;20462;-80
2023/10/17 12:41:40;;;;;;;2.87;0.20;;;;;;;;;;5053026;28;20405;-80
2023/10/17 12:44:06;;;;;;;2.10;0.30;;;;;;;;;;5052883;28;20442;-80
2023/10/17 12:46:32;;;;;;;1.23;0.20;;;;;;;;;;5052160;28;20178;-78
2023/10/17 12:48:58;;;;;;;1.33;0.20;;;;;;;;;;5052872;28;20423;-78
2023/10/17 12:51:24;;;;;;;1.50;0.20;;;;;;;;;;5053662;28;20173;-81
2023/10/17 12:53:50;;;;;;;2.00;1.03;;;;;;;;;;5056582;28;20232;-85
2023/10/17 12:56:17;;;;;;;2.00;0.20;;;;;;;;;;5052818;28;20557;-79
2023/10/17 12:58:43;;;;;;;1.87;0.30;;;;;;;;;;5052872;28;20779;-81
2023/10/17 13:01:12;;;;;;;1.13;0.50;;;;;;;;;;5052754;28;20416;-79
2023/10/17 13:03:38;;;;;;;1.17;0.20;;;;;;;;;;5052697;28;20497;-78
2023/10/17 13:06:04;;;;;;;2.17;0.20;;;;;;;;;;5052516;28;20420;-78
2023/10/17 13:08:31;;;;;;;1.23;0.30;;;;;;;;;;5052895;28;20466;-78
2023/10/17 13:10:57;;;;;;;0.90;0.20;;;;;;;;;;5052615;28;20492;-80
2023/10/17 13:13:23;;;;;;;1.00;0.30;;;;;;;;;;5052626;28;20471;-78
2023/10/17 13:15:49;;;;;;;2.30;0.40;;;;;;;;;;5052679;28;21067;-85
2023/10/17 13:18:16;;;;;;;2.00;0.30;;;;;;;;;;5052755;28;20461;-80
2023/10/17 13:20:48;;;;;;;4.80;0.30;;;;;;;;;;5052268;28;20173;-79
2023/10/17 13:23:16;;;;;;;3.67;0.40;;;;;;;;;;5035068;28;20489;-76
2023/10/17 13:25:42;;;;;;;2.20;0.27;;;;;;;;;;5052648;28;20445;-76
2023/10/17 13:28:08;;;;;;;1.07;0.20;;;;;;;;;;5034783;28;20427;-83
2023/10/17 13:30:34;;;;;;;2.00;0.40;;;;;;;;;;5052597;28;20899;-81
2023/10/17 13:33:00;;;;;;;1.27;0.57;;;;;;;;;;5052499;28;20470;-79
2023/10/17 13:35:26;;;;;;;0.80;0.30;;;;;;;;;;5052495;28;20763;-82
2023/10/17 13:37:52;;;;;;;1.60;0.63;;;;;;;;;;5052128;28;20405;-81
2023/10/17 13:40:19;;;;;;;4.90;0.63;;;;;;;;;;5052511;28;20419;-80
2023/10/17 13:42:46;;;;;;;1.87;0.20;;;;;;;;;;5052441;28;20468;-80
2023/10/17 13:45:13;;;;;;;1.60;0.20;;;;;;;;;;5066785;28;20424;-79
2023/10/17 13:47:49;;;;;;;1.07;0.20;;;;;;;;;;5054304;28;20801;-86
2023/10/17 13:50:15;;;;;;;1.80;0.37;;;;;;;;;;5072555;28;20398;-83
2023/10/17 13:52:42;;;;;;;1.17;0.20;;;;;;;;;;5071969;28;20468;-85
2023/10/17 13:55:14;;;;;;;3.33;0.20;;;;;;;;;;5072366;28;20464;-87
2023/10/17 13:57:42;;;;;;;3.33;0.73;;;;;;;;;;5057459;28;20948;-80
2023/10/17 14:00:09;;;;;;;1.00;0.23;;;;;;;;;;5049785;28;20786;-77
2023/10/17 14:02:35;;;;;;;3.70;0.20;;;;;;;;;;5068502;28;20429;-80
2023/10/17 14:05:01;;;;;;;2.37;0.20;;;;;;;;;;5058062;28;20518;-79
2023/10/17 14:07:27;;;;;;;2.83;0.43;;;;;;;;;;5055082;28;20233;-79
2023/10/17 14:09:55;;;;;;;1.23;0.47;;;;;;;;;;5055788;28;20502;-79
2023/10/17 14:12:21;;;;;;;0.93;0.20;;;;;;;;;;5055426;28;20458;-79
2023/10/17 14:14:48;;;;;;;1.60;0.20;;;;;;;;;;5055465;28;20454;-81
2023/10/17 14:17:20;;;;;;;0.60;0.30;;;;;;;;;;5057740;28;20406;-79
2023/10/17 14:19:46;;;;;;;1.80;0.30;;;;;;;;;;5046990;28;20969;-81
2023/10/17 14:27:24;;;;;;;2.20;0.37;;;;;;;;;;5055339;28;20409;-82
2023/10/17 14:29:53;;;;;;;1.93;0.20;;;;;;;;;;5055668;28;20402;-82
2023/10/17 14:32:20;;;;;;;2.57;0.30;;;;;;;;;;5057757;28;20834;-80
2023/10/17 14:34:47;;;;;;;0.80;0.20;;;;;;;;;;5072503;28;20504;-79
2023/10/17 14:37:17;;;;;;;0.50;0.30;;;;;;;;;;5073094;28;20530;-79
2023/10/17 14:39:44;;;;;;;1.43;0.20;;;;;;;;;;5055299;28;20428;-79
2023/10/17 14:42:10;;;;;;;1.90;0.20;;;;;;;;;;5054866;28;20425;-88
2023/10/17 14:44:37;;;;;;;1.67;0.40;;;;;;;;;;5054965;28;20436;-79
2023/10/17 14:47:06;;;;;;;3.80;0.60;;;;;;;;;;5054602;28;20475;-80
2023/10/17 14:49:35;;;;;;;0.90;0.20;;;;;;;;;;5055113;28;20414;-79
2023/10/17 14:52:01;;;;;;;0.83;0.23;;;;;;;;;;5054589;28;20436;-79
2023/10/17 14:54:27;;;;;;;1.50;0.20;;;;;;;;;;5065653;28;20440;-79
2023/10/17 14:56:53;;;;;;;0.60;0.20;;;;;;;;;;5074180;28;20173;-83
2023/10/17 14:59:19;;;;;;;2.00;0.20;;;;;;;;;;5074708;28;20184;-79
2023/10/17 15:01:46;;;;;;;1.50;0.30;;;;;;;;;;5073563;28;21018;-79
2023/10/17 15:04:12;;;;;;;1.63;0.20;;;;;;;;;;5074665;28;20412;-79
2023/10/17 15:06:38;;;;;;;0.87;0.20;;;;;;;;;;5063823;28;20416;-85
2023/10/17 15:09:08;;;;;;;3.23;0.23;;;;;;;;;;5066788;28;21271;-85
2023/10/17 15:11:34;;;;;;;1.37;0.20;;;;;;;;;;5054314;28;20423;-81
2023/10/17 15:14:04;;;;;;;0.83;0.30;;;;;;;;;;5068703;28;20467;-85
2023/10/17 15:16:30;;;;;;;2.00;0.30;;;;;;;;;;5074183;28;20161;-80
2023/10/17 15:18:56;;;;;;;1.03;0.30;;;;;;;;;;5074150;28;20430;-79
2023/10/17 15:21:22;;;;;;;0.60;0.20;;;;;;;;;;5073783;28;20903;-86
2023/10/17 15:23:49;;;;;;;0.60;0.40;;;;;;;;;;5073593;28;20416;-79
2023/10/17 15:26:16;;;;;;;1.80;0.20;;;;;;;;;;5074168;28;20413;-81
2023/10/17 15:28:48;;;;;;;0.50;0.20;;;;;;;;;;5074176;28;20406;-82
2023/10/17 15:31:16;;;;;;;0.63;0.20;;;;;;;;;;5074201;28;20410;-83
2023/10/17 15:33:44;;;;;;;1.10;0.30;;;;;;;;;;5074067;28;20487;-82
2023/10/17 15:36:13;;;;;;;1.07;0.30;;;;;;;;;;5073750;28;20456;-80
2023/10/17 15:38:43;;;;;;;1.33;0.23;;;;;;;;;;5074098;28;20406;-80
2023/10/17 15:41:14;;;;;;;5.60;0.57;;;;;;;;;;5073983;28;20476;-80
2023/10/17 15:43:40;;;;;;;1.77;0.30;;;;;;;;;;5073740;28;20395;-80
2023/10/17 15:46:06;;;;;;;1.97;0.20;;;;;;;;;;5073856;28;20502;-85
2023/10/17 15:48:32;;;;;;;1.13;0.20;;;;;;;;;;5073374;28;20466;-84
2023/10/17 15:51:00;;;;;;;1.40;0.20;;;;;;;;;;5073176;28;20918;-84
2023/10/17 15:53:28;;;;;;;2.33;0.50;;;;;;;;;;5072307;28;20474;-84
2023/10/17 15:55:55;;;;;;;2.33;0.33;;;;;;;;;;5064737;28;20422;-82
2023/10/17 15:58:22;;;;;;;0.87;0.30;;;;;;;;;;5073591;28;20783;-80
2023/10/17 16:00:48;;;;;;;1.73;0.20;;;;;;;;;;5072418;28;20467;-81
2023/10/17 16:03:15;;;;;;;2.17;0.53;;;;;;;;;;5073517;28;20485;-79
2023/10/17 16:05:41;;;;;;;1.67;0.30;;;;;;;;;;5064644;28;20423;-84
2023/10/17 16:08:10;;;;;;;1.03;0.20;;;;;;;;;;5064574;28;20961;-79
2023/10/17 16:10:39;;;;;;;2.23;0.40;;;;;;;;;;5062147;28;20822;-79
2023/10/17 16:13:08;;;;;;;1.57;0.20;;;;;;;;;;5045726;28;20480;-84
2023/10/17 16:15:35;;;;;;;3.17;0.33;;;;;;;;;;5053679;28;20433;-82
2023/10/17 16:18:01;;;;;;;1.37;0.30;;;;;;;;;;5053176;28;20818;-81
2023/10/17 16:20:27;;;;;;;2.70;0.90;;;;;;;;;;5052442;28;20514;-81
2023/10/17 16:22:53;;;;;;;0.80;0.30;;;;;;;;;;5053206;28;20424;-83
2023/10/17 16:25:23;;;;;;;1.97;0.30;;;;;;;;;;5035190;28;20431;-84
2023/10/17 16:27:49;;;;;;;1.20;0.30;;;;;;;;;;5053052;28;20813;-83
2023/10/17 16:30:15;;;;;;;2.00;0.37;;;;;;;;;;5035148;28;20405;-80
2023/10/17 16:32:41;;;;;;;2.30;0.40;;;;;;;;;;5052959;28;20634;-79
2023/10/17 16:35:07;;;;;;;3.90;0.23;;;;;;;;;;5052640;28;20417;-79
2023/10/17 16:37:34;;;;;;;1.33;0.30;;;;;;;;;;5052891;28;20400;-81
2023/10/17 16:40:04;;;;;;;1.20;0.33;;;;;;;;;;5052886;28;20422;-79
2023/10/17 16:42:32;;;;;;;2.80;0.63;;;;;;;;;;5035038;28;20424;-80
2023/10/17 16:44:58;;;;;;;1.77;0.40;;;;;;;;;;5057093;28;20449;-79
2023/10/17 16:47:26;;;;;;;1.13;0.50;;;;;;;;;;5072667;28;20498;-81
2023/10/17 16:49:53;;;;;;;3.50;1.17;;;;;;;;;;5072861;28;20410;-79
2023/10/17 16:52:19;;;;;;;2.20;0.57;;;;;;;;;;5072432;28;20520;-79
2023/10/17 16:54:46;;;;;;;4.90;1.00;;;;;;;;;;5072780;28;20408;-79
2023/10/17 16:57:15;;;;;;;2.67;1.37;;;;;;;;;;5054696;28;20975;-83
2023/10/17 16:59:41;;;;;;;3.53;1.50;;;;;;;;;;5072670;28;20414;-79
2023/10/17 17:02:07;;;;;;;5.73;2.10;;;;;;;;;;5054772;28;20453;-85
2023/10/17 17:04:33;;;;;;;3.50;2.03;;;;;;;;;;5072506;28;20502;-79
2023/10/17 17:06:59;;;;;;;4.37;2.50;;;;;;;;;;5053692;28;20993;-79